This is the latest recevied weather packets stored in our database for station/object F4ELU-13. If no packets are shown the sender has not sent any weather packets the latest 1 day(s).
| Time | Temp. | Humidity | Pressure | Rain* | Wind** | Luminosity | Snow |
|---|---|---|---|---|---|---|---|
| 1836274677 | 13.89° C | 88% | 1018.1 hPa | 0 mm | 0 m/s | - | - |
| 1836274467 | 13.89° C | 88% | 1018.1 hPa | 0 mm | 0 m/s | - | - |
| 1836274137 | 14.44° C | 87% | 1018.2 hPa | 0 mm | 0 m/s | - | - |
| 1778017503 | 9.44° C | 99% | 1009.5 hPa | 0 mm | 0 m/s | - | - |
| 1778016963 | 9.44° C | 99% | 1009.6 hPa | 0 mm | 0 m/s | - | - |
| 1778016423 | 9.44° C | 99% | 1009.8 hPa | 0 mm | 0 m/s | - | - |
| 1778015883 | 9.44° C | 99% | 1009.8 hPa | 0 mm | 0 m/s | - | - |
| 1778015343 | 9.44° C | 98% | 1009.7 hPa | 0 mm | 0 m/s | - | - |
| 1778014803 | 10° C | 97% | 1009.7 hPa | 0 mm | 0 m/s | - | - |
| 1778014443 | 10.56° C | 97% | 1009.8 hPa | 0 mm | 0 m/s | - | - |
| 1778013903 | 10° C | 97% | 1009.9 hPa | 0 mm | 0 m/s | - | - |
| 1778013363 | 10.56° C | 96% | 1010.1 hPa | 0 mm | 0 m/s | - | - |
| 1778012823 | 10.56° C | 97% | 1009.8 hPa | 0 mm | 0 m/s | - | - |
| 1778012283 | 10° C | 97% | 1009.7 hPa | 0 mm | 0 m/s | - | - |
| 1778011743 | 10° C | 97% | 1009.7 hPa | 0 mm | 0 m/s | - | - |
| 1778011203 | 10° C | 96% | 1009.3 hPa | 0 mm | 0 m/s | - | - |
| 1778010843 | 10° C | 96% | 1009.3 hPa | 0 mm | 0 m/s | - | - |
| 1778010303 | 10.56° C | 95% | 1009.1 hPa | 0 mm | 0 m/s | - | - |
| 1778009763 | 10.56° C | 94% | 1009.1 hPa | 0 mm | 0 m/s | - | - |
| 1778009223 | 11.11° C | 93% | 1009.1 hPa | 0 mm | 0 m/s | - | - |
| 1778008683 | 11.11° C | 92% | 1009 hPa | 0 mm | 0 m/s | - | - |
| 1778008143 | 11.67° C | 90% | 1008.7 hPa | 0 mm | 0 m/s | - | - |
| 1778007603 | 11.67° C | 91% | 1008.5 hPa | 0 mm | 0 m/s | - | - |
| 1778007243 | 11.67° C | 90% | 1008.5 hPa | 0 mm | 0 m/s | - | - |
| 1778006703 | 12.22° C | 89% | 1008.4 hPa | 0 mm | 0 m/s | - | - |
* Rain latest hour (hover to see other rain measurements)
** Current wind speed in m/s (hover to see current wind gust speed)